createdAt,value
2017-11-25T00:01:35.146Z,8.72
2017-11-25T00:04:02.759Z,8.59
2017-11-25T00:06:30.386Z,8.62
2017-11-25T00:08:58.006Z,8.69
2017-11-25T00:11:25.703Z,8.73
2017-11-25T00:13:53.323Z,8.63
2017-11-25T00:16:21.002Z,8.61
2017-11-25T00:18:48.616Z,8.64
2017-11-25T00:21:16.350Z,8.68
2017-11-25T00:23:43.972Z,8.73
2017-11-25T00:26:11.669Z,8.77
2017-11-25T00:28:39.293Z,8.83
2017-11-25T00:31:06.995Z,8.86
2017-11-25T00:33:34.626Z,8.89
2017-11-25T00:36:02.342Z,8.91
2017-11-25T00:38:29.996Z,8.94
2017-11-25T00:40:57.658Z,8.93
2017-11-25T00:43:25.327Z,8.89
2017-11-25T00:45:53.028Z,8.85
2017-11-25T00:48:20.668Z,8.86
2017-11-25T00:50:48.431Z,8.90
2017-11-25T00:53:16.179Z,8.91
2017-11-25T00:55:43.850Z,8.91
2017-11-25T00:58:11.480Z,8.95
2017-11-25T01:00:39.163Z,8.97
2017-11-25T01:03:06.864Z,8.99
2017-11-25T01:05:34.543Z,9.02
2017-11-25T01:08:02.163Z,9.07
2017-11-25T01:10:29.798Z,9.01
2017-11-25T01:12:57.400Z,8.95
2017-11-25T01:15:25.038Z,8.88
2017-11-25T01:17:52.694Z,8.84
2017-11-25T01:20:20.444Z,8.83
2017-11-25T01:22:48.155Z,8.79
2017-11-25T01:25:15.851Z,8.87
2017-11-25T01:27:43.518Z,8.85
2017-11-25T01:30:11.204Z,8.70
2017-11-25T01:32:38.935Z,8.66
2017-11-25T01:35:06.594Z,8.56
2017-11-25T01:37:34.257Z,8.53
2017-11-25T01:40:01.944Z,8.50
2017-11-25T01:42:29.598Z,8.54
2017-11-25T01:44:57.279Z,8.52
2017-11-25T01:47:24.919Z,8.42
2017-11-25T01:49:52.603Z,8.42
2017-11-25T01:52:20.255Z,8.41
2017-11-25T01:54:47.937Z,8.35
2017-11-25T01:57:15.565Z,8.19
2017-11-25T01:59:43.249Z,7.98
2017-11-25T02:02:10.899Z,7.84
2017-11-25T02:04:38.581Z,7.74
2017-11-25T02:07:06.211Z,7.67
2017-11-25T02:09:33.874Z,7.70
2017-11-25T02:12:01.527Z,7.62
2017-11-25T02:14:29.184Z,7.65
2017-11-25T02:16:56.813Z,7.63
2017-11-25T02:19:24.472Z,7.60
2017-11-25T02:21:52.163Z,7.59
2017-11-25T02:24:19.853Z,7.53
2017-11-25T02:26:47.495Z,7.56
2017-11-25T02:29:15.194Z,7.56
2017-11-25T02:31:42.829Z,7.55
2017-11-25T02:34:10.516Z,7.54
2017-11-25T02:36:38.163Z,7.47
2017-11-25T02:39:05.837Z,7.48
2017-11-25T02:41:33.498Z,7.31
2017-11-25T02:44:01.175Z,7.36
2017-11-25T02:46:28.832Z,7.35
2017-11-25T02:48:56.507Z,7.27
2017-11-25T02:51:24.157Z,7.27
2017-11-25T02:53:51.800Z,7.24
2017-11-25T02:56:19.476Z,7.18
2017-11-25T02:58:47.099Z,7.28
2017-11-25T03:01:14.770Z,7.31
2017-11-25T03:03:42.494Z,7.16
2017-11-25T03:06:10.270Z,7.16
2017-11-25T03:08:37.977Z,7.24
2017-11-25T03:11:05.630Z,7.23
2017-11-25T03:13:33.336Z,7.21
2017-11-25T03:16:00.984Z,7.20
2017-11-25T03:18:28.614Z,7.20
2017-11-25T03:20:56.287Z,7.29
2017-11-25T03:23:24.027Z,7.24
2017-11-25T03:25:51.689Z,7.17
2017-11-25T03:28:19.346Z,7.05
2017-11-25T03:30:47.056Z,7.11
2017-11-25T03:33:14.705Z,7.08
2017-11-25T03:35:42.386Z,7.11
2017-11-25T03:38:10.066Z,7.16
2017-11-25T03:40:37.763Z,7.22
2017-11-25T03:43:05.394Z,7.10
2017-11-25T03:45:33.059Z,7.14
2017-11-25T03:48:00.707Z,7.11
2017-11-25T03:50:28.390Z,7.21
2017-11-25T03:52:56.030Z,7.25
2017-11-25T03:55:23.703Z,7.16
2017-11-25T03:57:51.343Z,7.08
2017-11-25T04:00:18.995Z,6.99
2017-11-25T04:02:46.623Z,6.90
2017-11-25T04:05:14.309Z,6.96
2017-11-25T04:07:41.962Z,6.95
2017-11-25T04:10:09.646Z,6.99
2017-11-25T04:12:37.283Z,6.96
2017-11-25T04:15:04.994Z,7.01
2017-11-25T04:17:32.659Z,6.96
2017-11-25T04:20:00.349Z,7.06
2017-11-25T04:22:28.006Z,7.11
2017-11-25T04:24:55.665Z,7.18
2017-11-25T04:27:23.310Z,7.21
2017-11-25T04:29:50.981Z,7.07
2017-11-25T04:32:18.641Z,7.01
2017-11-25T04:34:46.313Z,7.04
2017-11-25T04:37:13.969Z,7.10
2017-11-25T04:39:41.781Z,7.10
2017-11-25T04:42:09.440Z,7.08
2017-11-25T04:44:37.141Z,7.13
2017-11-25T04:47:04.782Z,7.15
2017-11-25T04:49:32.458Z,7.17
2017-11-25T04:52:00.107Z,7.11
2017-11-25T04:54:27.783Z,7.14
2017-11-25T04:56:55.425Z,7.13
2017-11-25T04:59:23.097Z,7.14
2017-11-25T05:01:50.738Z,7.19
2017-11-25T05:04:18.436Z,7.19
2017-11-25T05:06:46.069Z,7.09
2017-11-25T05:09:13.742Z,7.06
2017-11-25T05:11:41.390Z,7.06
2017-11-25T05:14:09.047Z,7.09
2017-11-25T05:16:36.696Z,7.16
2017-11-25T05:19:04.388Z,7.11
2017-11-25T05:21:32.030Z,7.01
2017-11-25T05:23:59.717Z,7.00
2017-11-25T05:26:27.347Z,7.03
2017-11-25T05:28:55.017Z,7.10
2017-11-25T05:31:22.662Z,7.11
2017-11-25T05:33:50.295Z,7.13
2017-11-25T05:36:17.957Z,7.10
2017-11-25T05:38:45.586Z,7.02
2017-11-25T05:41:13.265Z,6.98
2017-11-25T05:43:40.910Z,6.99
2017-11-25T05:46:08.583Z,6.94
2017-11-25T05:48:36.244Z,7.03
2017-11-25T05:51:03.926Z,7.02
2017-11-25T05:53:31.640Z,7.00
2017-11-25T05:55:59.314Z,6.93
2017-11-25T05:58:26.962Z,6.94
2017-11-25T06:00:54.606Z,6.94
2017-11-25T06:03:22.281Z,6.88
2017-11-25T06:05:49.954Z,6.90
2017-11-25T06:08:17.598Z,6.86
2017-11-25T06:10:45.321Z,6.94
2017-11-25T06:13:12.969Z,6.92
2017-11-25T06:15:40.645Z,6.87
2017-11-25T06:18:08.302Z,6.92
2017-11-25T06:20:36.037Z,6.96
2017-11-25T06:23:03.689Z,7.01
2017-11-25T06:25:31.414Z,7.03
2017-11-25T06:27:59.038Z,7.01
2017-11-25T06:30:26.731Z,7.03
2017-11-25T06:32:54.378Z,7.09
2017-11-25T06:35:22.050Z,7.09
2017-11-25T06:37:49.743Z,7.08
2017-11-25T06:40:17.494Z,7.03
2017-11-25T06:42:45.142Z,6.98
2017-11-25T06:45:12.831Z,6.96
2017-11-25T06:47:40.473Z,6.97
2017-11-25T06:50:08.143Z,6.90
2017-11-25T06:52:35.792Z,6.89
2017-11-25T06:55:03.490Z,6.90
2017-11-25T06:57:31.139Z,6.92
2017-11-25T06:59:58.807Z,6.93
2017-11-25T07:02:26.451Z,6.96
2017-11-25T07:04:54.175Z,7.00
2017-11-25T07:07:21.824Z,7.04
2017-11-25T07:09:49.502Z,7.04
2017-11-25T07:12:17.143Z,7.03
2017-11-25T07:14:44.828Z,7.03
2017-11-25T07:17:12.752Z,7.06
2017-11-25T07:19:40.469Z,7.02
2017-11-25T07:22:08.099Z,7.02
2017-11-25T07:24:35.791Z,7.05
2017-11-25T07:27:03.435Z,7.10
2017-11-25T07:29:31.125Z,7.08
2017-11-25T07:31:58.789Z,7.11
2017-11-25T07:34:26.570Z,7.12
2017-11-25T07:36:54.218Z,7.08
2017-11-25T07:39:21.885Z,7.05
2017-11-25T07:41:49.535Z,7.02
2017-11-25T07:44:17.283Z,6.96
2017-11-25T07:46:44.934Z,6.91
2017-11-25T07:49:12.614Z,6.91
2017-11-25T07:51:40.271Z,6.96
2017-11-25T07:54:07.990Z,6.90
2017-11-25T07:56:35.657Z,6.90
2017-11-25T07:59:03.335Z,6.97
2017-11-25T08:01:31.131Z,7.02
2017-11-25T08:03:58.819Z,7.10
2017-11-25T08:06:26.543Z,7.07
2017-11-25T08:08:54.220Z,7.05
2017-11-25T08:11:21.900Z,7.05
2017-11-25T08:13:49.625Z,7.02
2017-11-25T08:16:17.235Z,7.03
2017-11-25T08:18:44.899Z,7.07
2017-11-25T08:21:12.558Z,7.09
2017-11-25T08:23:40.218Z,7.07
2017-11-25T08:26:08.903Z,7.07
2017-11-25T08:28:36.630Z,7.07
2017-11-25T08:31:04.467Z,7.13
2017-11-25T08:33:32.128Z,7.08
2017-11-25T08:35:59.731Z,7.12
2017-11-25T08:38:27.397Z,7.05
2017-11-25T08:40:55.013Z,7.06
2017-11-25T08:43:22.677Z,6.97
2017-11-25T08:45:50.362Z,6.94
2017-11-25T08:48:18.050Z,6.90
2017-11-25T08:50:45.763Z,6.97
2017-11-25T08:53:13.398Z,6.96
2017-11-25T08:55:41.007Z,6.90
2017-11-25T08:58:08.665Z,6.90
2017-11-25T09:00:36.327Z,6.94
2017-11-25T09:03:04.126Z,6.93
2017-11-25T09:05:31.878Z,6.93
2017-11-25T09:07:59.475Z,6.90
2017-11-25T09:10:27.109Z,6.90
2017-11-25T09:12:54.793Z,6.94
2017-11-25T09:15:22.429Z,6.99
2017-11-25T09:17:50.054Z,7.00
2017-11-25T09:20:17.684Z,6.95
2017-11-25T09:22:45.307Z,6.90
2017-11-25T09:25:12.948Z,6.87
2017-11-25T09:27:40.596Z,6.89
2017-11-25T09:30:08.222Z,6.87
2017-11-25T09:32:35.859Z,6.95
2017-11-25T09:35:03.452Z,6.98
2017-11-25T09:37:31.086Z,6.95
2017-11-25T09:39:58.680Z,6.96
2017-11-25T09:42:26.320Z,7.05
2017-11-25T09:44:53.922Z,7.03
2017-11-25T09:47:21.565Z,7.09
2017-11-25T09:49:49.177Z,7.13
2017-11-25T09:52:16.816Z,7.13
2017-11-25T09:54:44.441Z,7.15
2017-11-25T09:57:12.055Z,7.15
2017-11-25T09:59:39.762Z,7.15
2017-11-25T10:02:07.403Z,7.21
2017-11-25T10:04:35.071Z,7.21
2017-11-25T10:07:02.692Z,7.25
2017-11-25T10:09:30.530Z,7.26
2017-11-25T10:11:58.161Z,7.35
2017-11-25T10:14:25.816Z,7.36
2017-11-25T10:16:53.428Z,7.39
2017-11-25T10:19:21.118Z,7.39
2017-11-25T10:21:48.774Z,7.40
2017-11-25T10:24:16.415Z,7.35
2017-11-25T10:26:44.010Z,7.37
2017-11-25T10:29:11.825Z,7.41
2017-11-25T10:31:39.426Z,7.34
2017-11-25T10:34:07.080Z,7.35
2017-11-25T10:36:34.679Z,7.30
2017-11-25T10:39:02.306Z,7.24
2017-11-25T10:41:30.023Z,7.19
2017-11-25T10:43:57.658Z,7.18
2017-11-25T10:46:25.289Z,7.32
2017-11-25T10:48:53.063Z,7.29
2017-11-25T10:51:20.671Z,7.33
2017-11-25T10:53:48.327Z,7.31
2017-11-25T10:56:15.961Z,7.32
2017-11-25T10:58:43.587Z,7.32
2017-11-25T11:01:11.422Z,7.24
2017-11-25T11:03:39.330Z,7.27
2017-11-25T11:06:07.047Z,7.32
2017-11-25T11:08:34.681Z,7.37
2017-11-25T11:11:02.347Z,7.35
2017-11-25T11:13:30.139Z,7.42
2017-11-25T11:15:57.880Z,7.42
2017-11-25T11:18:25.519Z,7.40
2017-11-25T11:20:53.131Z,7.39
2017-11-25T11:23:20.778Z,7.45
2017-11-25T11:25:48.408Z,7.37
2017-11-25T11:28:16.084Z,7.32
2017-11-25T11:30:43.686Z,7.26
2017-11-25T11:33:11.561Z,7.29
2017-11-25T11:35:39.318Z,7.43
2017-11-25T11:38:06.954Z,7.44
2017-11-25T11:40:34.567Z,7.46
2017-11-25T11:43:02.230Z,7.49
2017-11-25T11:45:29.840Z,7.48
2017-11-25T11:47:57.496Z,7.59
2017-11-25T11:50:25.096Z,7.64
2017-11-25T11:52:52.732Z,7.69
2017-11-25T11:55:20.334Z,7.69
2017-11-25T11:57:48.077Z,7.79
2017-11-25T12:00:15.663Z,7.81
2017-11-25T12:02:43.287Z,7.87
2017-11-25T12:05:10.875Z,7.88
2017-11-25T12:07:38.521Z,7.96
2017-11-25T12:10:06.147Z,7.87
2017-11-25T12:12:33.794Z,7.93
2017-11-25T12:15:01.401Z,8.04
2017-11-25T12:17:29.207Z,8.20
2017-11-25T12:19:56.830Z,8.34
2017-11-25T12:22:24.479Z,8.43
2017-11-25T12:24:52.078Z,8.36
2017-11-25T12:27:19.710Z,8.20
2017-11-25T12:29:47.966Z,7.95
2017-11-25T12:32:15.627Z,7.92
2017-11-25T12:34:43.242Z,7.93
2017-11-25T12:37:10.899Z,7.94
2017-11-25T12:39:38.508Z,7.99
2017-11-25T12:42:06.159Z,8.00
2017-11-25T12:44:33.765Z,8.02
2017-11-25T12:47:01.515Z,8.01
2017-11-25T12:49:29.206Z,7.95
2017-11-25T12:51:56.866Z,7.99
2017-11-25T12:54:24.474Z,7.97
2017-11-25T12:56:52.118Z,8.02
2017-11-25T12:59:19.714Z,8.15
2017-11-25T13:01:47.343Z,8.17
2017-11-25T13:04:14.967Z,8.11
2017-11-25T15:55:18.672Z,7.13
2017-11-25T15:57:46.557Z,7.15
2017-11-25T16:00:15.185Z,7.14
2017-11-25T16:02:42.829Z,7.13
2017-11-25T16:05:10.649Z,7.16
2017-11-25T16:07:38.278Z,7.18
2017-11-25T16:10:05.937Z,7.18
2017-11-25T16:12:33.591Z,7.19
2017-11-25T16:15:01.206Z,7.20
2017-11-25T16:17:28.872Z,7.19
2017-11-25T16:19:56.473Z,7.15
2017-11-25T16:22:24.201Z,7.12
2017-11-25T16:24:51.874Z,7.12
2017-11-25T16:27:19.524Z,7.15
2017-11-25T16:29:47.256Z,7.19
2017-11-25T16:32:14.900Z,7.19
2017-11-25T16:34:42.511Z,7.15
2017-11-25T16:37:10.160Z,7.13
2017-11-25T16:39:37.788Z,7.12
2017-11-25T16:42:05.400Z,7.13
2017-11-25T16:44:33.140Z,7.11
2017-11-25T16:47:00.770Z,7.08
2017-11-25T16:49:28.389Z,7.09
2017-11-25T16:51:55.986Z,7.07
2017-11-25T16:54:23.636Z,7.12
2017-11-25T16:56:51.262Z,7.14
2017-11-25T16:59:18.879Z,7.17
2017-11-25T17:01:46.543Z,7.21
2017-11-25T17:04:14.192Z,7.25
2017-11-25T17:06:42.060Z,7.18
2017-11-25T17:09:09.696Z,7.13
2017-11-25T17:11:37.273Z,7.13
2017-11-25T17:14:05.108Z,7.07
2017-11-25T17:16:32.757Z,7.03
2017-11-25T17:19:00.434Z,6.98
2017-11-25T17:21:28.062Z,6.95
2017-11-25T17:23:55.672Z,6.88
2017-11-25T17:26:23.308Z,6.77
2017-11-25T17:28:50.905Z,6.74
2017-11-25T17:31:18.583Z,6.73
2017-11-25T17:33:46.376Z,6.68
2017-11-25T17:36:13.995Z,6.62
2017-11-25T17:38:41.625Z,6.48
2017-11-25T17:41:09.383Z,6.45
2017-11-25T17:43:37.072Z,6.41
2017-11-25T17:46:04.729Z,6.40
2017-11-25T17:48:32.312Z,6.40
2017-11-25T17:51:00.026Z,6.35
2017-11-25T17:53:27.703Z,6.29
2017-11-25T17:55:55.299Z,6.25
2017-11-25T17:58:22.919Z,6.24
2017-11-25T18:00:50.532Z,6.29
2017-11-25T18:03:18.145Z,6.29
2017-11-25T18:05:45.831Z,6.27
2017-11-25T18:08:13.472Z,6.24
2017-11-25T18:10:41.078Z,6.21
2017-11-25T18:13:08.704Z,6.22
2017-11-25T18:15:36.313Z,6.16
2017-11-25T18:18:03.950Z,6.20
2017-11-25T18:20:31.593Z,6.20
2017-11-25T18:22:59.231Z,6.08
2017-11-25T18:25:26.828Z,6.12
2017-11-25T18:27:54.517Z,6.06
2017-11-25T18:30:22.138Z,6.07
2017-11-25T18:32:49.763Z,6.06
2017-11-25T18:35:17.363Z,6.62
2017-11-25T18:37:45.004Z,6.43
2017-11-25T18:40:12.833Z,6.29
2017-11-25T18:42:40.495Z,6.17
2017-11-25T18:45:08.108Z,6.11
2017-11-25T18:47:35.769Z,6.06
2017-11-25T18:50:03.380Z,6.02
2017-11-25T18:52:30.962Z,6.01
2017-11-25T18:54:58.668Z,5.99
2017-11-25T18:57:26.337Z,5.99
2017-11-25T18:59:54.001Z,5.96
2017-11-25T19:02:21.687Z,5.91
2017-11-25T19:04:49.309Z,5.92
2017-11-25T19:07:17.048Z,5.85
2017-11-25T19:09:44.713Z,5.85
2017-11-25T19:12:12.394Z,5.88
2017-11-25T19:14:40.065Z,5.84
2017-11-25T19:17:07.692Z,5.80
2017-11-25T19:19:35.316Z,5.75
2017-11-25T19:22:02.957Z,5.74
2017-11-25T19:24:30.574Z,5.72
2017-11-25T19:26:58.185Z,5.67
2017-11-25T19:29:25.808Z,5.62
2017-11-25T19:31:53.493Z,5.60
2017-11-25T19:34:21.207Z,5.57
2017-11-25T19:36:48.869Z,5.50
2017-11-25T19:39:16.546Z,5.52
2017-11-25T19:41:44.181Z,5.58
2017-11-25T19:44:11.937Z,5.48
2017-11-25T19:46:39.550Z,5.48
2017-11-25T19:49:07.189Z,5.52
2017-11-25T19:51:34.796Z,5.50
2017-11-25T19:54:02.411Z,5.50
2017-11-25T19:56:29.997Z,5.48
2017-11-25T19:58:57.717Z,5.52
2017-11-25T20:01:25.329Z,5.51
2017-11-25T20:03:53.093Z,5.52
2017-11-25T20:06:20.704Z,5.55
2017-11-25T20:08:48.316Z,5.57
2017-11-25T20:11:15.913Z,5.52
2017-11-25T20:13:43.550Z,5.44
2017-11-25T20:16:11.143Z,5.43
2017-11-25T20:18:38.788Z,5.45
2017-11-25T20:21:06.402Z,5.43
2017-11-25T20:23:34.146Z,5.40
2017-11-25T20:26:01.784Z,5.34
2017-11-25T20:28:29.565Z,5.34
2017-11-25T20:30:57.202Z,5.37
2017-11-25T20:33:24.797Z,5.40
2017-11-25T20:35:52.519Z,5.35
2017-11-25T20:38:20.137Z,5.33
2017-11-25T20:40:47.756Z,5.32
2017-11-25T20:43:15.390Z,5.21
2017-11-25T20:45:43.034Z,5.21
2017-11-25T20:48:10.711Z,5.18
2017-11-25T20:50:38.371Z,5.18
2017-11-25T20:53:06.009Z,5.23
2017-11-25T20:55:33.615Z,5.22
2017-11-25T20:58:01.261Z,5.23
2017-11-25T21:00:28.890Z,5.21
2017-11-25T21:02:56.553Z,5.22
2017-11-25T21:05:24.184Z,5.21
2017-11-25T21:07:51.882Z,5.21
2017-11-25T21:10:19.627Z,5.23
2017-11-25T21:12:47.271Z,5.24
2017-11-25T21:15:14.906Z,5.26
2017-11-25T21:17:42.496Z,5.27
2017-11-25T21:20:10.238Z,5.28
2017-11-25T21:22:37.864Z,5.31
2017-11-25T21:25:05.484Z,5.33
2017-11-25T21:27:33.139Z,5.34
2017-11-25T21:30:00.801Z,5.34
2017-11-25T21:32:28.407Z,5.35
2017-11-25T21:34:56.046Z,5.38
2017-11-25T21:37:23.645Z,5.29
2017-11-25T21:39:51.356Z,5.32
2017-11-25T21:42:18.982Z,5.36
2017-11-25T21:44:46.650Z,5.34
2017-11-25T21:47:14.418Z,5.37
2017-11-25T21:49:42.057Z,5.36
2017-11-25T21:52:09.651Z,5.41
2017-11-25T21:54:37.378Z,5.45
2017-11-25T21:57:05.068Z,5.43
2017-11-25T21:59:32.704Z,5.38
2017-11-25T22:02:00.310Z,5.30
2017-11-25T22:04:27.925Z,5.25
2017-11-25T22:06:55.523Z,5.24
2017-11-25T22:09:23.240Z,5.21
2017-11-25T22:11:50.888Z,5.22
2017-11-25T22:14:18.533Z,5.18
2017-11-25T22:16:46.125Z,5.15
2017-11-25T22:19:13.741Z,5.17
2017-11-25T22:21:41.365Z,5.17
2017-11-25T22:24:09.021Z,5.24
2017-11-25T22:26:36.630Z,5.22
2017-11-25T22:29:04.364Z,5.19
2017-11-25T22:31:32.239Z,5.14
2017-11-25T22:33:59.923Z,5.17
2017-11-25T22:36:27.628Z,5.24
2017-11-25T22:38:55.426Z,5.27
2017-11-25T22:41:23.118Z,5.24
2017-11-25T22:43:51.091Z,5.27
2017-11-25T22:46:18.688Z,5.27
2017-11-25T22:48:46.347Z,5.26
2017-11-25T22:51:14.029Z,5.30
2017-11-25T22:53:41.655Z,5.27
2017-11-25T22:56:09.248Z,5.29
2017-11-25T22:58:36.886Z,5.27
2017-11-25T23:01:04.506Z,5.28
2017-11-25T23:03:32.160Z,5.22
2017-11-25T23:06:05.344Z,5.23
2017-11-25T23:08:32.972Z,5.27
2017-11-25T23:11:00.564Z,5.28
2017-11-25T23:13:28.212Z,5.30
2017-11-25T23:15:55.824Z,5.33
2017-11-25T23:18:23.491Z,5.26
2017-11-25T23:20:51.092Z,5.26
2017-11-25T23:23:18.731Z,5.25
2017-11-25T23:25:46.346Z,5.25
2017-11-25T23:28:13.953Z,5.21
2017-11-25T23:30:41.691Z,5.18
2017-11-25T23:33:09.299Z,5.19
2017-11-25T23:35:36.927Z,5.24
2017-11-25T23:38:04.588Z,5.23
2017-11-25T23:40:32.217Z,5.27
2017-11-25T23:42:59.846Z,5.29
2017-11-25T23:45:27.445Z,5.27
2017-11-25T23:47:55.092Z,5.26
2017-11-25T23:50:22.778Z,5.20
2017-11-25T23:52:50.412Z,5.21
2017-11-25T23:55:18.009Z,5.22
2017-11-25T23:57:45.661Z,5.23
